createdAt,value
2023-01-09T00:01:44.407Z,10.15
2023-01-09T00:04:51.300Z,9.27
2023-01-09T00:07:58.127Z,9.96
2023-01-09T00:11:06.003Z,10.66
2023-01-09T00:14:12.746Z,11.12
2023-01-09T00:17:19.546Z,11.34
2023-01-09T00:20:26.274Z,11.59
2023-01-09T00:23:33.165Z,11.42
2023-01-09T00:26:40.078Z,10.10
2023-01-09T00:29:49.459Z,8.87
2023-01-09T00:32:57.089Z,7.93
2023-01-09T00:36:04.163Z,7.58
2023-01-09T00:39:10.993Z,8.63
2023-01-09T00:42:21.938Z,9.58
2023-01-09T00:45:31.460Z,10.10
2023-01-09T00:48:38.606Z,10.46
2023-01-09T00:51:45.527Z,10.68
2023-01-09T00:54:52.863Z,10.91
2023-01-09T00:57:59.718Z,11.12
2023-01-09T01:01:06.678Z,11.31
2023-01-09T01:04:31.161Z,11.18
2023-01-09T01:07:41.239Z,9.65
2023-01-09T01:10:49.365Z,8.38
2023-01-09T01:13:57.053Z,7.50
2023-01-09T01:17:04.035Z,7.17
2023-01-09T01:20:14.103Z,8.24
2023-01-09T01:23:21.016Z,9.16
2023-01-09T01:26:27.890Z,9.75
2023-01-09T01:29:34.709Z,10.12
2023-01-09T01:32:41.979Z,10.36
2023-01-09T01:35:48.702Z,10.52
2023-01-09T01:38:55.352Z,10.57
2023-01-09T01:42:03.829Z,10.72
2023-01-09T01:45:14.913Z,10.96
2023-01-09T01:48:25.475Z,11.14
2023-01-09T01:51:35.689Z,11.28
2023-01-09T01:54:42.956Z,11.35
2023-01-09T01:57:56.074Z,10.49
2023-01-09T02:01:03.534Z,8.90
2023-01-09T02:04:10.942Z,7.77
2023-01-09T02:07:17.618Z,7.26
2023-01-09T02:10:25.486Z,8.19
2023-01-09T02:13:33.722Z,9.14
2023-01-09T02:16:52.046Z,9.69
2023-01-09T02:20:32.678Z,10.03
2023-01-09T02:24:09.130Z,10.41
2023-01-09T02:27:56.432Z,10.61
2023-01-09T02:31:10.528Z,10.82
2023-01-09T02:34:27.581Z,10.95
2023-01-09T02:37:45.122Z,11.07
2023-01-09T02:41:01.176Z,10.76
2023-01-09T02:44:26.432Z,9.22
2023-01-09T02:47:44.938Z,7.83
2023-01-09T02:51:07.671Z,7.24
2023-01-09T02:54:29.255Z,8.19
2023-01-09T02:57:53.244Z,9.04
2023-01-09T03:01:08.809Z,9.57
2023-01-09T03:04:22.318Z,9.89
2023-01-09T03:07:35.786Z,10.09
2023-01-09T03:10:46.668Z,10.21
2023-01-09T03:13:56.887Z,10.39
2023-01-09T03:17:08.614Z,10.54
2023-01-09T03:20:20.818Z,10.67
2023-01-09T03:23:27.633Z,10.77
2023-01-09T03:26:34.502Z,10.51
2023-01-09T03:29:41.301Z,9.05
2023-01-09T03:32:48.127Z,7.73
2023-01-09T03:35:54.798Z,6.77
2023-01-09T03:39:01.517Z,6.38
2023-01-09T03:42:08.491Z,7.38
2023-01-09T03:45:16.178Z,8.31
2023-01-09T03:48:23.650Z,8.80
2023-01-09T03:51:30.388Z,9.13
2023-01-09T03:54:37.134Z,9.49
2023-01-09T03:57:44.004Z,9.78
2023-01-09T04:00:52.393Z,9.99
2023-01-09T04:03:59.165Z,10.19
2023-01-09T04:07:06.100Z,10.32
2023-01-09T04:10:14.222Z,10.49
2023-01-09T04:13:21.169Z,9.72
2023-01-09T04:16:28.083Z,8.20
2023-01-09T04:19:34.720Z,7.06
2023-01-09T04:22:41.508Z,6.53
2023-01-09T04:25:49.109Z,7.44
2023-01-09T04:28:55.759Z,8.30
2023-01-09T04:32:02.498Z,8.86
2023-01-09T04:35:11.209Z,9.25
2023-01-09T04:38:18.402Z,9.55
2023-01-09T04:41:42.663Z,9.74
2023-01-09T04:44:53.858Z,9.90
2023-01-09T04:48:00.594Z,10.04
2023-01-09T04:51:07.707Z,10.16
2023-01-09T04:54:14.903Z,10.08
2023-01-09T04:57:21.985Z,10.07
2023-01-09T05:00:29.109Z,9.99
2023-01-09T05:03:35.732Z,8.85
2023-01-09T05:06:42.502Z,7.45
2023-01-09T05:09:49.316Z,7.62
2023-01-09T05:12:56.022Z,8.36
2023-01-09T05:16:02.901Z,8.85
2023-01-09T05:19:09.720Z,9.12
2023-01-09T05:22:16.422Z,9.36
2023-01-09T05:25:23.118Z,9.49
2023-01-09T05:28:29.894Z,9.59
2023-01-09T05:31:36.695Z,9.73
2023-01-09T05:34:43.310Z,9.72
2023-01-09T05:37:52.455Z,9.74
2023-01-09T05:40:59.493Z,9.83
2023-01-09T05:44:06.648Z,9.81
2023-01-09T05:47:13.516Z,9.81
2023-01-09T05:50:20.323Z,9.78
2023-01-09T05:53:27.284Z,9.95
2023-01-09T05:56:34.139Z,10.01
2023-01-09T05:59:40.863Z,10.12
2023-01-09T06:02:47.641Z,10.25
2023-01-09T06:05:54.505Z,10.10
2023-01-09T06:09:01.289Z,8.94
2023-01-09T06:12:08.807Z,7.57
2023-01-09T06:15:16.518Z,6.93
2023-01-09T06:18:23.443Z,7.73
2023-01-09T06:21:30.415Z,8.55
2023-01-09T06:24:37.236Z,9.12
2023-01-09T06:27:44.027Z,9.51
2023-01-09T06:30:54.327Z,9.79
2023-01-09T06:34:01.089Z,10.05
2023-01-09T06:37:07.888Z,10.25
2023-01-09T06:40:15.911Z,10.32
2023-01-09T06:43:22.891Z,10.05
2023-01-09T06:46:29.877Z,8.52
2023-01-09T06:49:36.747Z,7.43
2023-01-09T06:52:43.695Z,7.95
2023-01-09T06:55:50.568Z,8.65
2023-01-09T06:58:57.472Z,9.17
2023-01-09T07:02:04.401Z,9.49
2023-01-09T07:05:12.908Z,9.75
2023-01-09T07:08:19.768Z,9.91
2023-01-09T07:11:26.840Z,10.10
2023-01-09T07:14:34.260Z,10.20
2023-01-09T07:17:41.045Z,10.34
2023-01-09T07:20:48.529Z,10.34
2023-01-09T07:23:55.641Z,10.02
2023-01-09T07:27:02.914Z,8.57
2023-01-09T07:30:12.351Z,7.58
2023-01-09T07:33:19.136Z,8.19
2023-01-09T07:36:26.060Z,8.88
2023-01-09T07:39:33.269Z,9.35
2023-01-09T07:42:40.092Z,9.62
2023-01-09T07:45:48.635Z,9.78
2023-01-09T07:48:56.504Z,9.98
2023-01-09T07:52:03.962Z,10.19
2023-01-09T07:55:12.628Z,10.27
2023-01-09T07:58:19.666Z,10.35
2023-01-09T08:01:26.641Z,10.48
2023-01-09T08:04:33.607Z,10.33
2023-01-09T08:07:40.532Z,9.00
2023-01-09T08:10:47.432Z,8.08
2023-01-09T08:13:54.521Z,8.77
2023-01-09T08:17:01.226Z,9.44
2023-01-09T08:20:11.084Z,9.88
2023-01-09T08:23:18.021Z,10.20
2023-01-09T08:26:24.921Z,10.44
2023-01-09T08:29:31.640Z,10.54
2023-01-09T08:32:42.475Z,10.66
2023-01-09T08:35:49.233Z,10.74
2023-01-09T08:38:56.161Z,10.70
2023-01-09T08:42:20.559Z,10.80
2023-01-09T08:45:45.413Z,10.49
2023-01-09T08:48:52.621Z,8.97
2023-01-09T08:51:59.306Z,7.83
2023-01-09T08:55:06.936Z,7.38
2023-01-09T08:58:13.883Z,8.42
2023-01-09T09:01:20.648Z,9.36
2023-01-09T09:04:27.654Z,9.89
2023-01-09T09:07:34.553Z,10.32
2023-01-09T09:10:41.277Z,10.69
2023-01-09T09:13:48.046Z,11.04
2023-01-09T09:16:55.226Z,10.92
2023-01-09T09:20:02.421Z,9.61
2023-01-09T09:23:09.296Z,8.48
2023-01-09T09:26:16.307Z,8.06
2023-01-09T09:29:23.280Z,9.10
2023-01-09T09:32:30.193Z,10.04
2023-01-09T09:35:37.711Z,10.61
2023-01-09T09:38:44.543Z,11.03
2023-01-09T09:42:28.808Z,11.33
2023-01-09T09:45:44.706Z,10.35
2023-01-09T09:48:57.154Z,9.05
2023-01-09T09:52:15.078Z,8.10
2023-01-09T09:55:31.049Z,7.71
2023-01-09T09:58:40.594Z,8.61
2023-01-09T10:01:54.954Z,9.44
2023-01-09T10:05:13.617Z,10.05
2023-01-09T10:08:31.559Z,10.51
2023-01-09T10:11:45.954Z,10.88
2023-01-09T10:14:52.957Z,11.14
2023-01-09T10:18:16.424Z,11.35
2023-01-09T10:21:31.744Z,11.48
2023-01-09T10:25:06.912Z,10.58
2023-01-09T10:28:29.521Z,9.10
2023-01-09T10:31:47.108Z,8.99
2023-01-09T10:35:06.172Z,9.92
2023-01-09T10:38:19.477Z,10.52
2023-01-09T10:41:33.050Z,10.96
2023-01-09T10:44:47.148Z,11.25
2023-01-09T10:48:01.489Z,11.58
2023-01-09T10:51:20.195Z,11.44
2023-01-09T10:54:29.360Z,9.99
2023-01-09T10:57:44.380Z,8.88
2023-01-09T11:00:52.617Z,8.43
2023-01-09T11:04:01.956Z,9.43
2023-01-09T11:07:18.063Z,10.35
2023-01-09T11:10:24.963Z,10.91
2023-01-09T11:13:33.588Z,11.27
2023-01-09T11:16:51.534Z,11.59
2023-01-09T11:20:06.499Z,11.80
2023-01-09T11:23:30.219Z,11.87
2023-01-09T11:26:39.840Z,10.70
2023-01-09T11:29:45.092Z,9.57
2023-01-09T11:32:52.227Z,8.73
2023-01-09T11:36:02.968Z,8.46
2023-01-09T11:39:24.911Z,9.52
2023-01-09T11:42:50.605Z,10.46
2023-01-09T11:46:01.646Z,11.20
2023-01-09T11:49:23.969Z,11.76
2023-01-09T11:52:30.802Z,12.22
2023-01-09T11:55:42.475Z,12.19
2023-01-09T11:58:50.114Z,10.90
2023-01-09T12:02:31.885Z,9.79
2023-01-09T12:05:50.321Z,8.86
2023-01-09T12:09:02.131Z,8.70
2023-01-09T12:12:21.588Z,9.89
2023-01-09T12:15:32.320Z,10.91
2023-01-09T12:18:54.869Z,11.47
2023-01-09T12:22:08.974Z,11.93
2023-01-09T12:25:29.294Z,12.32
2023-01-09T12:29:00.767Z,12.58
2023-01-09T12:32:28.855Z,11.59
2023-01-09T12:35:42.116Z,10.24
2023-01-09T12:38:57.160Z,9.35
2023-01-09T12:42:26.429Z,9.05
2023-01-09T12:45:45.423Z,10.23
2023-01-09T12:49:15.000Z,11.12
2023-01-09T12:52:26.738Z,11.74
2023-01-09T12:55:42.117Z,12.17
2023-01-09T12:58:54.521Z,12.52
2023-01-09T13:02:13.207Z,12.61
2023-01-09T13:05:24.912Z,11.44
2023-01-09T13:08:35.573Z,10.19
2023-01-09T13:11:48.351Z,9.62
2023-01-09T13:15:00.776Z,10.49
2023-01-09T13:18:13.687Z,11.27
2023-01-09T13:21:22.075Z,11.71
2023-01-09T13:24:37.492Z,12.00
2023-01-09T13:27:52.936Z,12.25
2023-01-09T13:31:15.147Z,12.42
2023-01-09T13:34:25.559Z,12.35
2023-01-09T13:37:34.264Z,11.03
2023-01-09T13:40:41.472Z,9.87
2023-01-09T13:43:59.724Z,9.41
2023-01-09T13:47:17.292Z,10.45
2023-01-09T13:50:30.312Z,11.27
2023-01-09T13:53:49.747Z,11.78
2023-01-09T13:57:12.515Z,12.10
2023-01-09T14:01:05.389Z,12.28
2023-01-09T14:04:44.665Z,12.46
2023-01-09T14:07:53.601Z,12.61
2023-01-09T14:11:02.787Z,12.76
2023-01-09T14:14:26.369Z,12.20
2023-01-09T14:17:38.596Z,10.70
2023-01-09T14:20:53.605Z,9.62
2023-01-09T14:24:06.698Z,9.22
2023-01-09T14:27:59.710Z,10.20
2023-01-09T14:31:10.467Z,11.06
2023-01-09T14:34:39.971Z,11.50
2023-01-09T14:37:54.071Z,11.83
2023-01-09T14:41:05.376Z,12.03
2023-01-09T14:44:26.161Z,12.20
2023-01-09T14:47:39.305Z,12.38
2023-01-09T14:50:55.215Z,12.48
2023-01-09T14:54:16.338Z,12.52
2023-01-09T14:57:31.301Z,12.58
2023-01-09T15:00:38.078Z,12.61
2023-01-09T15:03:50.801Z,12.63
2023-01-09T15:06:57.751Z,12.63
2023-01-09T15:10:06.147Z,12.63
2023-01-09T15:13:19.479Z,12.60
2023-01-09T15:16:28.417Z,12.56
2023-01-09T15:19:37.487Z,12.47
2023-01-09T15:22:52.754Z,12.49
2023-01-09T15:26:15.368Z,12.34
2023-01-09T15:29:23.512Z,12.33
2023-01-09T15:32:31.786Z,12.37
2023-01-09T15:35:42.106Z,12.44
2023-01-09T15:38:51.009Z,12.48
2023-01-09T15:42:25.650Z,12.48
2023-01-09T15:45:35.772Z,12.51
2023-01-09T15:48:42.883Z,12.48
2023-01-09T15:51:53.247Z,12.47
2023-01-09T15:55:02.514Z,12.43
2023-01-09T15:58:29.161Z,12.42
2023-01-09T16:01:39.785Z,12.22
2023-01-09T16:04:47.033Z,12.27
2023-01-09T16:07:54.722Z,12.36
2023-01-09T16:11:10.524Z,12.44
2023-01-09T16:14:21.805Z,12.17
2023-01-09T16:17:31.421Z,12.23
2023-01-09T16:20:40.111Z,12.24
2023-01-09T16:23:54.789Z,12.43
2023-01-09T16:27:21.898Z,12.34
2023-01-09T16:30:29.495Z,12.43
2023-01-09T16:33:36.687Z,12.47
2023-01-09T16:36:43.568Z,12.47
2023-01-09T16:40:24.163Z,12.41
2023-01-09T16:43:31.131Z,12.21
2023-01-09T16:46:40.372Z,12.04
2023-01-09T16:49:47.100Z,12.13
2023-01-09T16:52:53.944Z,12.13
2023-01-09T16:56:01.550Z,12.09
2023-01-09T16:59:15.294Z,12.04
2023-01-09T17:02:22.983Z,12.10
2023-01-09T17:05:29.715Z,12.22
2023-01-09T17:08:37.978Z,12.31
2023-01-09T17:11:45.892Z,12.40
2023-01-09T17:14:53.091Z,12.55
2023-01-09T17:18:00.986Z,12.73
2023-01-09T17:21:13.814Z,12.81
2023-01-09T17:24:38.919Z,12.76
2023-01-09T17:28:03.791Z,12.62
2023-01-09T17:31:13.028Z,11.70
2023-01-09T17:34:20.254Z,10.20
2023-01-09T17:37:27.010Z,10.28
2023-01-09T17:40:34.837Z,10.95
2023-01-09T17:43:44.118Z,11.38
2023-01-09T17:46:52.127Z,11.69
2023-01-09T17:49:58.930Z,11.77
2023-01-09T17:53:06.335Z,11.73
2023-01-09T17:56:18.423Z,11.87
2023-01-09T17:59:27.471Z,11.57
2023-01-09T18:02:34.561Z,11.74
2023-01-09T18:05:41.599Z,11.61
2023-01-09T18:08:48.936Z,11.95
2023-01-09T18:11:56.057Z,11.99
2023-01-09T18:15:03.517Z,11.97
2023-01-09T18:18:10.642Z,11.85
2023-01-09T18:21:20.313Z,11.44
2023-01-09T18:24:25.541Z,11.61
2023-01-09T18:27:32.435Z,11.52
2023-01-09T18:30:39.349Z,11.44
2023-01-09T18:33:47.425Z,11.20
2023-01-09T18:36:54.362Z,10.98
2023-01-09T18:40:01.210Z,10.82
2023-01-09T18:43:09.165Z,10.66
2023-01-09T18:46:16.444Z,10.30
2023-01-09T18:49:23.345Z,10.26
2023-01-09T18:52:30.108Z,10.39
2023-01-09T18:55:38.806Z,10.62
2023-01-09T18:58:45.628Z,10.64
2023-01-09T19:01:52.480Z,10.75
2023-01-09T19:04:59.321Z,10.76
2023-01-09T19:08:06.514Z,11.04
2023-01-09T19:11:13.546Z,11.09
2023-01-09T19:14:20.360Z,11.14
2023-01-09T19:17:27.113Z,11.23
2023-01-09T19:20:34.538Z,11.21
2023-01-09T19:23:43.037Z,11.23
2023-01-09T19:26:49.780Z,11.09
2023-01-09T19:29:56.715Z,11.22
2023-01-09T19:33:03.912Z,11.32
2023-01-09T19:36:11.577Z,11.40
2023-01-09T19:39:18.291Z,11.49
2023-01-09T19:42:25.611Z,11.29
2023-01-09T19:45:32.521Z,9.87
2023-01-09T19:48:39.656Z,8.69
2023-01-09T19:51:46.466Z,9.17
2023-01-09T19:54:53.732Z,9.74
2023-01-09T19:58:00.467Z,10.05
2023-01-09T20:01:12.599Z,10.26
2023-01-09T20:04:20.218Z,10.41
2023-01-09T20:07:27.078Z,10.57
2023-01-09T20:10:34.624Z,10.70
2023-01-09T20:13:41.832Z,10.82
2023-01-09T20:16:50.826Z,10.90
2023-01-09T20:19:57.606Z,10.74
2023-01-09T20:23:04.455Z,9.40
2023-01-09T20:26:11.291Z,8.08
2023-01-09T20:29:18.220Z,7.46
2023-01-09T20:32:25.156Z,8.26
2023-01-09T20:35:32.462Z,9.06
2023-01-09T20:38:41.502Z,9.54
2023-01-09T20:41:51.461Z,9.82
2023-01-09T20:44:58.333Z,10.04
2023-01-09T20:48:05.316Z,10.23
2023-01-09T20:51:12.714Z,10.37
2023-01-09T20:54:21.358Z,10.50
2023-01-09T20:57:29.596Z,10.65
2023-01-09T21:00:36.447Z,10.81
2023-01-09T21:03:44.017Z,10.96
2023-01-09T21:06:50.814Z,10.72
2023-01-09T21:09:58.453Z,9.32
2023-01-09T21:13:05.045Z,8.49
2023-01-09T21:16:13.429Z,9.24
2023-01-09T21:19:20.301Z,9.96
2023-01-09T21:22:27.230Z,10.33
2023-01-09T21:25:33.880Z,10.51
2023-01-09T21:28:50.264Z,10.52
2023-01-09T21:31:57.230Z,10.49
2023-01-09T21:35:05.991Z,10.52
2023-01-09T21:38:12.618Z,9.50
2023-01-09T21:41:39.196Z,8.14
2023-01-09T21:45:03.283Z,7.61
2023-01-09T21:48:11.370Z,8.72
2023-01-09T21:51:18.127Z,9.53
2023-01-09T21:54:25.822Z,10.02
2023-01-09T21:57:32.647Z,10.38
2023-01-09T22:00:41.286Z,10.73
2023-01-09T22:03:47.991Z,10.88
2023-01-09T22:06:54.936Z,9.65
2023-01-09T22:10:01.769Z,8.55
2023-01-09T22:13:16.224Z,9.21
2023-01-09T22:16:24.403Z,9.97
2023-01-09T22:19:31.726Z,10.38
2023-01-09T22:22:38.465Z,10.74
2023-01-09T22:25:47.524Z,11.05
2023-01-09T22:28:55.830Z,11.33
2023-01-09T22:32:05.852Z,10.66
2023-01-09T22:35:13.192Z,9.26
2023-01-09T22:38:19.853Z,8.59
2023-01-09T22:41:27.613Z,9.44
2023-01-09T22:44:34.361Z,10.02
2023-01-09T22:47:41.189Z,10.47
2023-01-09T22:50:47.875Z,10.71
2023-01-09T22:53:54.663Z,10.56
2023-01-09T22:57:01.540Z,9.15
2023-01-09T23:00:12.886Z,7.78
2023-01-09T23:03:19.649Z,7.09
2023-01-09T23:06:26.552Z,7.96
2023-01-09T23:09:33.282Z,8.88
2023-01-09T23:12:39.946Z,9.55
2023-01-09T23:15:47.198Z,10.07
2023-01-09T23:18:53.973Z,10.49
2023-01-09T23:22:01.498Z,10.81
2023-01-09T23:25:09.791Z,11.11
2023-01-09T23:28:16.612Z,11.40
2023-01-09T23:31:23.503Z,11.66
2023-01-09T23:34:30.319Z,11.92
2023-01-09T23:37:37.078Z,11.80
2023-01-09T23:40:44.473Z,10.46
2023-01-09T23:43:51.256Z,9.60
2023-01-09T23:46:57.954Z,10.35
2023-01-09T23:50:07.038Z,11.10
2023-01-09T23:53:13.884Z,11.54
2023-01-09T23:56:20.665Z,11.78
2023-01-09T23:59:27.610Z,11.96
